sensor_id;sensor_type;location;lat;lon;timestamp;pressure;altitude;pressure_sealevel;temperature;humidity
7824;BME280;3957;48.61947800;9.05303100;2024-02-15T00:00:40;96540.06;;;8.30;100.00
7824;BME280;3957;48.61947800;9.05303100;2024-02-15T00:01:42;96536.22;;;8.33;100.00
7824;BME280;3957;48.61947800;9.05303100;2024-02-15T00:02:44;96534.13;;;8.43;100.00
7824;BME280;3957;48.61947800;9.05303100;2024-02-15T00:03:46;96536.97;;;8.42;100.00
7824;BME280;3957;48.61947800;9.05303100;2024-02-15T00:04:47;96537.78;;;8.42;100.00
7824;BME280;3957;48.61947800;9.05303100;2024-02-15T00:05:49;96537.16;;;8.40;100.00
7824;BME280;3957;48.61947800;9.05303100;2024-02-15T00:06:51;96533.81;;;8.38;100.00
7824;BME280;3957;48.61947800;9.05303100;2024-02-15T00:07:52;96535.47;;;8.39;100.00
7824;BME280;3957;48.61947800;9.05303100;2024-02-15T00:08:56;96541.66;;;8.40;100.00
7824;BME280;3957;48.61947800;9.05303100;2024-02-15T00:09:57;96537.50;;;8.37;100.00
7824;BME280;3957;48.61947800;9.05303100;2024-02-15T00:11:00;96544.66;;;8.37;100.00
7824;BME280;3957;48.61947800;9.05303100;2024-02-15T00:12:01;96545.03;;;8.33;100.00
7824;BME280;3957;48.61947800;9.05303100;2024-02-15T00:13:03;96543.91;;;8.28;100.00
7824;BME280;3957;48.61947800;9.05303100;2024-02-15T00:14:07;96545.22;;;8.32;100.00
7824;BME280;3957;48.61947800;9.05303100;2024-02-15T00:15:09;96544.53;;;8.30;100.00
7824;BME280;3957;48.61947800;9.05303100;2024-02-15T00:16:13;96544.53;;;8.30;100.00
7824;BME280;3957;48.61947800;9.05303100;2024-02-15T00:17:16;96538.94;;;8.25;100.00
7824;BME280;3957;48.61947800;9.05303100;2024-02-15T00:18:17;96544.09;;;8.26;100.00
7824;BME280;3957;48.61947800;9.05303100;2024-02-15T00:19:20;96544.72;;;8.28;100.00
7824;BME280;3957;48.61947800;9.05303100;2024-02-15T00:20:23;96535.72;;;8.29;100.00
7824;BME280;3957;48.61947800;9.05303100;2024-02-15T00:21:24;96547.06;;;8.31;100.00
7824;BME280;3957;48.61947800;9.05303100;2024-02-15T00:22:26;96541.88;;;8.30;100.00
7824;BME280;3957;48.61947800;9.05303100;2024-02-15T00:23:27;96539.41;;;8.28;100.00
7824;BME280;3957;48.61947800;9.05303100;2024-02-15T00:24:29;96538.22;;;8.31;100.00
7824;BME280;3957;48.61947800;9.05303100;2024-02-15T00:25:32;96536.97;;;8.42;100.00
7824;BME280;3957;48.61947800;9.05303100;2024-02-15T00:26:34;96540.09;;;8.54;100.00
7824;BME280;3957;48.61947800;9.05303100;2024-02-15T00:27:36;96535.69;;;8.61;100.00
7824;BME280;3957;48.61947800;9.05303100;2024-02-15T00:28:41;96541.38;;;8.58;100.00
7824;BME280;3957;48.61947800;9.05303100;2024-02-15T00:29:43;96539.22;;;8.53;100.00
7824;BME280;3957;48.61947800;9.05303100;2024-02-15T00:30:44;96533.63;;;8.48;100.00
7824;BME280;3957;48.61947800;9.05303100;2024-02-15T00:31:46;96540.28;;;8.52;100.00
7824;BME280;3957;48.61947800;9.05303100;2024-02-15T00:32:48;96536.94;;;8.50;100.00
7824;BME280;3957;48.61947800;9.05303100;2024-02-15T00:33:50;96543.13;;;8.42;100.00
7824;BME280;3957;48.61947800;9.05303100;2024-02-15T00:34:52;96537.22;;;8.32;100.00
7824;BME280;3957;48.61947800;9.05303100;2024-02-15T00:35:55;96534.25;;;8.27;100.00
7824;BME280;3957;48.61947800;9.05303100;2024-02-15T00:36:56;96535.44;;;8.24;100.00
7824;BME280;3957;48.61947800;9.05303100;2024-02-15T00:37:58;96536.47;;;8.23;100.00
7824;BME280;3957;48.61947800;9.05303100;2024-02-15T00:38:59;96530.63;;;8.20;100.00
7824;BME280;3957;48.61947800;9.05303100;2024-02-15T00:40:01;96534.03;;;8.13;100.00
7824;BME280;3957;48.61947800;9.05303100;2024-02-15T00:41:05;96533.31;;;8.20;100.00
7824;BME280;3957;48.61947800;9.05303100;2024-02-15T00:42:07;96533.19;;;8.13;100.00
7824;BME280;3957;48.61947800;9.05303100;2024-02-15T00:43:10;96533.84;;;8.15;100.00
7824;BME280;3957;48.61947800;9.05303100;2024-02-15T00:44:12;96533.72;;;8.08;100.00
7824;BME280;3957;48.61947800;9.05303100;2024-02-15T00:45:13;96533.41;;;8.03;100.00
7824;BME280;3957;48.61947800;9.05303100;2024-02-15T00:46:16;96530.38;;;8.06;100.00
7824;BME280;3957;48.61947800;9.05303100;2024-02-15T00:47:18;96535.09;;;8.04;100.00
7824;BME280;3957;48.61947800;9.05303100;2024-02-15T00:48:21;96533.53;;;8.10;100.00
7824;BME280;3957;48.61947800;9.05303100;2024-02-15T00:49:23;96528.41;;;8.08;100.00
7824;BME280;3957;48.61947800;9.05303100;2024-02-15T00:50:25;96533.72;;;8.08;100.00
7824;BME280;3957;48.61947800;9.05303100;2024-02-15T00:51:26;96528.03;;;8.11;100.00
7824;BME280;3957;48.61947800;9.05303100;2024-02-15T00:52:28;96526.25;;;8.27;100.00
7824;BME280;3957;48.61947800;9.05303100;2024-02-15T00:53:30;96524.94;;;8.23;100.00
7824;BME280;3957;48.61947800;9.05303100;2024-02-15T00:54:32;96529.16;;;8.17;100.00
7824;BME280;3957;48.61947800;9.05303100;2024-02-15T00:55:33;96526.50;;;8.17;100.00
7824;BME280;3957;48.61947800;9.05303100;2024-02-15T00:56:35;96520.41;;;8.08;100.00
7824;BME280;3957;48.61947800;9.05303100;2024-02-15T00:57:37;96527.28;;;8.03;100.00
7824;BME280;3957;48.61947800;9.05303100;2024-02-15T00:58:38;96522.25;;;7.99;100.00
7824;BME280;3957;48.61947800;9.05303100;2024-02-15T00:59:40;96523.38;;;8.13;100.00
7824;BME280;3957;48.61947800;9.05303100;2024-02-15T01:00:41;96521.09;;;8.02;100.00
7824;BME280;3957;48.61947800;9.05303100;2024-02-15T01:01:43;96520.16;;;7.95;100.00
7824;BME280;3957;48.61947800;9.05303100;2024-02-15T01:02:44;96521.22;;;8.09;100.00
7824;BME280;3957;48.61947800;9.05303100;2024-02-15T01:03:47;96524.41;;;8.04;100.00
7824;BME280;3957;48.61947800;9.05303100;2024-02-15T01:04:51;96521.03;;;8.10;100.00
7824;BME280;3957;48.61947800;9.05303100;2024-02-15T01:05:54;96514.75;;;8.03;100.00
7824;BME280;3957;48.61947800;9.05303100;2024-02-15T01:06:56;96518.59;;;8.00;100.00
7824;BME280;3957;48.61947800;9.05303100;2024-02-15T01:07:58;96512.28;;;8.02;100.00
7824;BME280;3957;48.61947800;9.05303100;2024-02-15T01:09:00;96519.84;;;7.90;100.00
7824;BME280;3957;48.61947800;9.05303100;2024-02-15T01:10:05;96515.03;;;7.85;100.00
7824;BME280;3957;48.61947800;9.05303100;2024-02-15T01:11:07;96512.50;;;7.92;100.00
7824;BME280;3957;48.61947800;9.05303100;2024-02-15T01:12:09;96513.38;;;7.84;100.00
7824;BME280;3957;48.61947800;9.05303100;2024-02-15T01:13:11;96515.22;;;7.83;100.00
7824;BME280;3957;48.61947800;9.05303100;2024-02-15T01:14:14;96507.81;;;7.71;100.00
7824;BME280;3957;48.61947800;9.05303100;2024-02-15T01:15:16;96511.84;;;7.66;100.00
7824;BME280;3957;48.61947800;9.05303100;2024-02-15T01:16:19;96511.03;;;7.58;100.00
7824;BME280;3957;48.61947800;9.05303100;2024-02-15T01:17:22;96514.91;;;7.47;100.00
7824;BME280;3957;48.61947800;9.05303100;2024-02-15T01:18:24;96514.09;;;7.46;100.00
7824;BME280;3957;48.61947800;9.05303100;2024-02-15T01:19:26;96516.78;;;7.38;100.00
7824;BME280;3957;48.61947800;9.05303100;2024-02-15T01:20:28;96512.44;;;7.37;100.00
7824;BME280;3957;48.61947800;9.05303100;2024-02-15T01:21:30;96517.59;;;7.39;100.00
7824;BME280;3957;48.61947800;9.05303100;2024-02-15T01:22:34;96508.78;;;7.38;100.00
7824;BME280;3957;48.61947800;9.05303100;2024-02-15T01:23:36;96505.81;;;7.33;100.00
7824;BME280;3957;48.61947800;9.05303100;2024-02-15T01:24:38;96513.97;;;7.31;100.00
7824;BME280;3957;48.61947800;9.05303100;2024-02-15T01:25:40;96498.00;;;7.31;100.00
7824;BME280;3957;48.61947800;9.05303100;2024-02-15T01:26:42;96504.44;;;7.45;100.00
7824;BME280;3957;48.61947800;9.05303100;2024-02-15T01:27:43;96504.09;;;7.48;100.00
7824;BME280;3957;48.61947800;9.05303100;2024-02-15T01:28:44;96504.25;;;7.47;100.00
7824;BME280;3957;48.61947800;9.05303100;2024-02-15T01:29:46;96507.94;;;7.46;100.00
7824;BME280;3957;48.61947800;9.05303100;2024-02-15T01:30:48;96508.59;;;7.48;100.00
7824;BME280;3957;48.61947800;9.05303100;2024-02-15T01:31:49;96502.13;;;7.42;100.00
7824;BME280;3957;48.61947800;9.05303100;2024-02-15T01:32:51;96507.06;;;7.54;100.00
7824;BME280;3957;48.61947800;9.05303100;2024-02-15T01:33:52;96507.22;;;7.52;100.00
7824;BME280;3957;48.61947800;9.05303100;2024-02-15T01:34:54;96505.25;;;7.54;100.00
7824;BME280;3957;48.61947800;9.05303100;2024-02-15T01:35:56;96508.22;;;7.51;100.00
7824;BME280;3957;48.61947800;9.05303100;2024-02-15T01:36:58;96510.59;;;7.46;100.00
7824;BME280;3957;48.61947800;9.05303100;2024-02-15T01:37:59;96507.53;;;7.57;100.00
7824;BME280;3957;48.61947800;9.05303100;2024-02-15T01:39:01;96513.50;;;7.59;100.00
7824;BME280;3957;48.61947800;9.05303100;2024-02-15T01:40:04;96514.03;;;7.55;100.00
7824;BME280;3957;48.61947800;9.05303100;2024-02-15T01:41:08;96507.22;;;7.52;100.00
7824;BME280;3957;48.61947800;9.05303100;2024-02-15T01:42:09;96509.25;;;7.50;100.00
7824;BME280;3957;48.61947800;9.05303100;2024-02-15T01:43:11;96513.22;;;7.54;100.00
7824;BME280;3957;48.61947800;9.05303100;2024-02-15T01:44:12;96513.69;;;7.58;100.00
7824;BME280;3957;48.61947800;9.05303100;2024-02-15T01:45:14;96512.56;;;7.52;100.00
7824;BME280;3957;48.61947800;9.05303100;2024-02-15T01:46:16;96509.28;;;7.42;100.00
7824;BME280;3957;48.61947800;9.05303100;2024-02-15T01:47:18;96508.00;;;7.29;100.00
7824;BME280;3957;48.61947800;9.05303100;2024-02-15T01:48:24;96511.16;;;7.25;100.00
7824;BME280;3957;48.61947800;9.05303100;2024-02-15T01:49:27;96496.53;;;7.21;100.00
7824;BME280;3957;48.61947800;9.05303100;2024-02-15T01:50:29;96500.69;;;7.23;100.00
7824;BME280;3957;48.61947800;9.05303100;2024-02-15T01:51:31;96501.22;;;7.19;100.00
7824;BME280;3957;48.61947800;9.05303100;2024-02-15T01:52:34;96495.13;;;7.10;100.00
7824;BME280;3957;48.61947800;9.05303100;2024-02-15T01:53:36;96500.13;;;7.05;100.00
7824;BME280;3957;48.61947800;9.05303100;2024-02-15T01:54:39;96492.47;;;7.10;100.00
7824;BME280;3957;48.61947800;9.05303100;2024-02-15T01:55:40;96494.06;;;7.19;100.00
7824;BME280;3957;48.61947800;9.05303100;2024-02-15T01:56:43;96492.38;;;7.26;100.00
7824;BME280;3957;48.61947800;9.05303100;2024-02-15T01:57:45;96484.38;;;7.26;100.00
7824;BME280;3957;48.61947800;9.05303100;2024-02-15T01:58:47;96487.19;;;7.33;100.00
7824;BME280;3957;48.61947800;9.05303100;2024-02-15T01:59:52;96487.00;;;7.35;100.00
7824;BME280;3957;48.61947800;9.05303100;2024-02-15T02:00:55;96484.34;;;7.35;100.00
7824;BME280;3957;48.61947800;9.05303100;2024-02-15T02:01:58;96487.19;;;7.33;100.00
7824;BME280;3957;48.61947800;9.05303100;2024-02-15T02:03:01;96493.69;;;7.30;100.00
7824;BME280;3957;48.61947800;9.05303100;2024-02-15T02:04:04;96487.72;;;7.28;100.00
7824;BME280;3957;48.61947800;9.05303100;2024-02-15T02:05:06;96488.31;;;7.39;100.00
7824;BME280;3957;48.61947800;9.05303100;2024-02-15T02:06:09;96482.72;;;7.34;100.00
7824;BME280;3957;48.61947800;9.05303100;2024-02-15T02:07:10;96489.81;;;7.41;100.00
7824;BME280;3957;48.61947800;9.05303100;2024-02-15T02:08:12;96489.19;;;7.31;100.00
7824;BME280;3957;48.61947800;9.05303100;2024-02-15T02:09:14;96486.19;;;7.34;100.00
7824;BME280;3957;48.61947800;9.05303100;2024-02-15T02:10:16;96484.34;;;7.35;100.00
7824;BME280;3957;48.61947800;9.05303100;2024-02-15T02:11:18;96488.50;;;7.37;100.00
7824;BME280;3957;48.61947800;9.05303100;2024-02-15T02:12:19;96492.81;;;7.38;100.00
7824;BME280;3957;48.61947800;9.05303100;2024-02-15T02:13:21;96491.16;;;7.37;100.00
7824;BME280;3957;48.61947800;9.05303100;2024-02-15T02:14:23;96493.19;;;7.35;100.00
7824;BME280;3957;48.61947800;9.05303100;2024-02-15T02:15:25;96488.66;;;7.36;100.00
7824;BME280;3957;48.61947800;9.05303100;2024-02-15T02:16:31;96493.00;;;7.37;100.00
7824;BME280;3957;48.61947800;9.05303100;2024-02-15T02:17:37;96493.22;;;7.27;100.00
7824;BME280;3957;48.61947800;9.05303100;2024-02-15T02:18:38;96493.06;;;7.20;100.00
7824;BME280;3957;48.61947800;9.05303100;2024-02-15T02:19:41;96491.25;;;7.12;100.00
7824;BME280;3957;48.61947800;9.05303100;2024-02-15T02:20:44;96501.91;;;7.12;100.00
7824;BME280;3957;48.61947800;9.05303100;2024-02-15T02:21:46;96493.28;;;7.10;100.00
7824;BME280;3957;48.61947800;9.05303100;2024-02-15T02:22:53;96500.13;;;7.05;100.00
7824;BME280;3957;48.61947800;9.05303100;2024-02-15T02:23:57;96492.69;;;6.92;100.00
7824;BME280;3957;48.61947800;9.05303100;2024-02-15T02:25:07;96495.69;;;6.80;100.00
7824;BME280;3957;48.61947800;9.05303100;2024-02-15T02:26:09;96495.84;;;6.79;100.00
7824;BME280;3957;48.61947800;9.05303100;2024-02-15T02:27:13;96496.19;;;6.76;100.00
7824;BME280;3957;48.61947800;9.05303100;2024-02-15T02:28:15;96498.34;;;6.72;100.00
7824;BME280;3957;48.61947800;9.05303100;2024-02-15T02:29:19;96493.22;;;6.71;100.00
7824;BME280;3957;48.61947800;9.05303100;2024-02-15T02:30:22;96491.41;;;6.71;100.00
7824;BME280;3957;48.61947800;9.05303100;2024-02-15T02:31:24;96501.19;;;6.62;100.00
7824;BME280;3957;48.61947800;9.05303100;2024-02-15T02:32:26;96490.41;;;6.56;100.00
7824;BME280;3957;48.61947800;9.05303100;2024-02-15T02:33:28;96495.59;;;6.49;100.00
7824;BME280;3957;48.61947800;9.05303100;2024-02-15T02:34:30;96490.75;;;6.36;100.00
7824;BME280;3957;48.61947800;9.05303100;2024-02-15T02:35:32;96488.97;;;6.28;100.00
7824;BME280;3957;48.61947800;9.05303100;2024-02-15T02:36:34;96491.28;;;6.32;100.00
7824;BME280;3957;48.61947800;9.05303100;2024-02-15T02:37:36;96484.97;;;6.33;100.00
7824;BME280;3957;48.61947800;9.05303100;2024-02-15T02:38:38;96487.13;;;6.37;100.00
7824;BME280;3957;48.61947800;9.05303100;2024-02-15T02:39:40;96493.25;;;6.46;100.00
7824;BME280;3957;48.61947800;9.05303100;2024-02-15T02:40:44;96492.41;;;6.54;100.00
7824;BME280;3957;48.61947800;9.05303100;2024-02-15T02:41:45;96486.09;;;6.55;100.00
7824;BME280;3957;48.61947800;9.05303100;2024-02-15T02:42:57;96490.91;;;6.59;100.00
7824;BME280;3957;48.61947800;9.05303100;2024-02-15T02:44:00;96490.25;;;6.57;100.00
7824;BME280;3957;48.61947800;9.05303100;2024-02-15T02:45:02;96491.72;;;6.60;100.00
7824;BME280;3957;48.61947800;9.05303100;2024-02-15T02:46:04;96482.13;;;6.59;100.00
7824;BME280;3957;48.61947800;9.05303100;2024-02-15T02:47:07;96490.56;;;6.54;100.00
7824;BME280;3957;48.61947800;9.05303100;2024-02-15T02:48:08;96492.41;;;6.45;100.00
7824;BME280;3957;48.61947800;9.05303100;2024-02-15T02:49:10;96489.09;;;6.43;100.00
7824;BME280;3957;48.61947800;9.05303100;2024-02-15T02:50:13;96487.28;;;6.36;100.00
7824;BME280;3957;48.61947800;9.05303100;2024-02-15T02:51:15;96482.78;;;6.36;100.00
7824;BME280;3957;48.61947800;9.05303100;2024-02-15T02:52:17;96485.94;;;6.40;100.00
7824;BME280;3957;48.61947800;9.05303100;2024-02-15T02:53:19;96485.97;;;6.32;100.00
7824;BME280;3957;48.61947800;9.05303100;2024-02-15T02:54:20;96489.09;;;6.35;100.00
7824;BME280;3957;48.61947800;9.05303100;2024-02-15T02:55:22;96474.00;;;6.27;100.00
7824;BME280;3957;48.61947800;9.05303100;2024-02-15T02:56:24;96471.34;;;6.27;100.00
7824;BME280;3957;48.61947800;9.05303100;2024-02-15T02:57:25;96479.16;;;6.29;100.00
7824;BME280;3957;48.61947800;9.05303100;2024-02-15T02:58:27;96482.28;;;6.49;100.00
7824;BME280;3957;48.61947800;9.05303100;2024-02-15T02:59:28;96483.94;;;6.50;100.00
7824;BME280;3957;48.61947800;9.05303100;2024-02-15T03:00:30;96489.94;;;6.44;100.00
7824;BME280;3957;48.61947800;9.05303100;2024-02-15T03:01:32;96485.94;;;6.40;100.00
7824;BME280;3957;48.61947800;9.05303100;2024-02-15T03:02:34;96487.28;;;6.36;100.00
7824;BME280;3957;48.61947800;9.05303100;2024-02-15T03:03:36;96479.97;;;6.29;100.00
7824;BME280;3957;48.61947800;9.05303100;2024-02-15T03:04:39;96482.31;;;6.24;100.00
7824;BME280;3957;48.61947800;9.05303100;2024-02-15T03:05:41;96483.13;;;6.17;100.00
7824;BME280;3957;48.61947800;9.05303100;2024-02-15T03:06:43;96483.13;;;6.25;100.00
7824;BME280;3957;48.61947800;9.05303100;2024-02-15T03:07:45;96482.97;;;6.35;100.00
7824;BME280;3957;48.61947800;9.05303100;2024-02-15T03:08:47;96483.13;;;6.33;100.00
7824;BME280;3957;48.61947800;9.05303100;2024-02-15T03:09:48;96479.31;;;6.44;100.00
7824;BME280;3957;48.61947800;9.05303100;2024-02-15T03:10:50;96485.59;;;6.43;100.00
7824;BME280;3957;48.61947800;9.05303100;2024-02-15T03:11:52;96481.28;;;6.34;100.00
7824;BME280;3957;48.61947800;9.05303100;2024-02-15T03:12:53;96483.63;;;6.28;100.00
7824;BME280;3957;48.61947800;9.05303100;2024-02-15T03:13:55;96481.47;;;6.32;100.00
7824;BME280;3957;48.61947800;9.05303100;2024-02-15T03:15:01;96483.47;;;6.30;100.00
7824;BME280;3957;48.61947800;9.05303100;2024-02-15T03:16:03;96484.97;;;6.24;100.00
7824;BME280;3957;48.61947800;9.05303100;2024-02-15T03:17:07;96477.47;;;6.20;100.00
7824;BME280;3957;48.61947800;9.05303100;2024-02-15T03:18:09;96483.63;;;6.37;100.00
7824;BME280;3957;48.61947800;9.05303100;2024-02-15T03:19:11;96481.13;;;6.35;100.00
7824;BME280;3957;48.61947800;9.05303100;2024-02-15T03:20:14;96480.47;;;6.41;100.00
7824;BME280;3957;48.61947800;9.05303100;2024-02-15T03:21:27;96490.09;;;6.42;100.00
7824;BME280;3957;48.61947800;9.05303100;2024-02-15T03:22:29;96486.28;;;6.37;100.00
7824;BME280;3957;48.61947800;9.05303100;2024-02-15T03:23:31;96475.00;;;6.26;100.00
7824;BME280;3957;48.61947800;9.05303100;2024-02-15T03:24:34;96481.16;;;6.10;100.00
7824;BME280;3957;48.61947800;9.05303100;2024-02-15T03:25:36;96485.63;;;6.02;100.00
7824;BME280;3957;48.61947800;9.05303100;2024-02-15T03:26:38;96480.25;;;5.93;100.00
7824;BME280;3957;48.61947800;9.05303100;2024-02-15T03:27:41;96486.59;;;5.84;100.00
7824;BME280;3957;48.61947800;9.05303100;2024-02-15T03:28:43;96480.94;;;5.95;100.00
7824;BME280;3957;48.61947800;9.05303100;2024-02-15T03:29:45;96485.44;;;6.03;100.00
7824;BME280;3957;48.61947800;9.05303100;2024-02-15T03:30:48;96479.63;;;5.91;100.00
7824;BME280;3957;48.61947800;9.05303100;2024-02-15T03:31:49;96474.81;;;6.03;100.00
7824;BME280;3957;48.61947800;9.05303100;2024-02-15T03:32:52;96482.63;;;6.05;100.00
7824;BME280;3957;48.61947800;9.05303100;2024-02-15T03:33:54;96476.81;;;6.01;100.00
7824;BME280;3957;48.61947800;9.05303100;2024-02-15T03:34:56;96475.66;;;6.04;100.00
7824;BME280;3957;48.61947800;9.05303100;2024-02-15T03:35:58;96472.00;;;6.05;100.00
7824;BME280;3957;48.61947800;9.05303100;2024-02-15T03:37:02;96468.84;;;6.01;100.00
7824;BME280;3957;48.61947800;9.05303100;2024-02-15T03:38:05;96478.47;;;5.94;100.00
7824;BME280;3957;48.61947800;9.05303100;2024-02-15T03:39:08;96473.63;;;5.89;100.00
7824;BME280;3957;48.61947800;9.05303100;2024-02-15T03:40:10;96480.94;;;5.79;100.00
7824;BME280;3957;48.61947800;9.05303100;2024-02-15T03:41:12;96481.41;;;5.74;100.00
7824;BME280;3957;48.61947800;9.05303100;2024-02-15T03:42:13;96484.41;;;5.79;100.00
7824;BME280;3957;48.61947800;9.05303100;2024-02-15T03:43:15;96476.97;;;5.91;100.00
7824;BME280;3957;48.61947800;9.05303100;2024-02-15T03:44:19;96482.59;;;5.96;100.00
7824;BME280;3957;48.61947800;9.05303100;2024-02-15T03:45:21;96476.63;;;5.94;100.00
7824;BME280;3957;48.61947800;9.05303100;2024-02-15T03:46:27;96474.63;;;5.88;100.00
7824;BME280;3957;48.61947800;9.05303100;2024-02-15T03:47:29;96484.56;;;5.78;100.00
7824;BME280;3957;48.61947800;9.05303100;2024-02-15T03:48:31;96487.72;;;5.65;100.00
7824;BME280;3957;48.61947800;9.05303100;2024-02-15T03:49:33;96484.06;;;5.58;100.00
7824;BME280;3957;48.61947800;9.05303100;2024-02-15T03:50:35;96483.38;;;5.56;100.00
7824;BME280;3957;48.61947800;9.05303100;2024-02-15T03:51:36;96482.38;;;5.49;100.00
7824;BME280;3957;48.61947800;9.05303100;2024-02-15T03:52:38;96484.81;;;5.42;100.00
7824;BME280;3957;48.61947800;9.05303100;2024-02-15T03:53:40;96481.81;;;5.37;100.00
7824;BME280;3957;48.61947800;9.05303100;2024-02-15T03:54:41;96487.81;;;5.39;100.00
7824;BME280;3957;48.61947800;9.05303100;2024-02-15T03:55:44;96481.97;;;5.35;100.00
7824;BME280;3957;48.61947800;9.05303100;2024-02-15T03:56:49;96477.00;;;5.32;100.00
7824;BME280;3957;48.61947800;9.05303100;2024-02-15T03:57:54;96485.63;;;5.34;100.00
7824;BME280;3957;48.61947800;9.05303100;2024-02-15T03:58:58;96485.13;;;5.31;100.00
7824;BME280;3957;48.61947800;9.05303100;2024-02-15T04:00:00;96488.13;;;5.36;100.00
7824;BME280;3957;48.61947800;9.05303100;2024-02-15T04:01:10;96489.16;;;5.43;100.00
7824;BME280;3957;48.61947800;9.05303100;2024-02-15T04:02:12;96492.13;;;5.48;100.00
7824;BME280;3957;48.61947800;9.05303100;2024-02-15T04:03:16;96488.84;;;5.54;100.00
7824;BME280;3957;48.61947800;9.05303100;2024-02-15T04:04:18;96500.81;;;5.67;100.00
7824;BME280;3957;48.61947800;9.05303100;2024-02-15T04:05:22;96491.38;;;5.72;100.00
7824;BME280;3957;48.61947800;9.05303100;2024-02-15T04:06:25;96493.03;;;5.73;100.00
7824;BME280;3957;48.61947800;9.05303100;2024-02-15T04:07:29;96493.22;;;5.88;100.00
7824;BME280;3957;48.61947800;9.05303100;2024-02-15T04:08:30;96487.25;;;5.94;100.00
7824;BME280;3957;48.61947800;9.05303100;2024-02-15T04:09:32;96484.97;;;6.00;100.00
7824;BME280;3957;48.61947800;9.05303100;2024-02-15T04:10:34;96493.13;;;6.15;100.00
7824;BME280;3957;48.61947800;9.05303100;2024-02-15T04:11:36;96491.63;;;6.20;100.00
7824;BME280;3957;48.61947800;9.05303100;2024-02-15T04:12:39;96490.47;;;6.23;100.00
7824;BME280;3957;48.61947800;9.05303100;2024-02-15T04:13:43;96496.25;;;6.26;100.00
7824;BME280;3957;48.61947800;9.05303100;2024-02-15T04:14:45;96491.91;;;6.34;100.00
7824;BME280;3957;48.61947800;9.05303100;2024-02-15T04:15:47;96495.75;;;6.31;100.00
7824;BME280;3957;48.61947800;9.05303100;2024-02-15T04:16:51;96499.25;;;6.32;100.00
7824;BME280;3957;48.61947800;9.05303100;2024-02-15T04:17:52;96496.06;;;6.36;100.00
7824;BME280;3957;48.61947800;9.05303100;2024-02-15T04:18:57;96495.25;;;6.36;100.00
7824;BME280;3957;48.61947800;9.05303100;2024-02-15T04:19:59;96498.41;;;6.39;100.00
7824;BME280;3957;48.61947800;9.05303100;2024-02-15T04:21:01;96492.94;;;6.41;100.00
7824;BME280;3957;48.61947800;9.05303100;2024-02-15T04:22:03;96495.59;;;6.41;100.00
7824;BME280;3957;48.61947800;9.05303100;2024-02-15T04:23:09;96486.13;;;6.38;100.00
7824;BME280;3957;48.61947800;9.05303100;2024-02-15T04:24:10;96487.75;;;6.39;100.00
7824;BME280;3957;48.61947800;9.05303100;2024-02-15T04:25:12;96486.28;;;6.37;100.00
7824;BME280;3957;48.61947800;9.05303100;2024-02-15T04:26:20;96481.81;;;6.37;100.00
7824;BME280;3957;48.61947800;9.05303100;2024-02-15T04:27:21;96484.63;;;6.36;100.00
7824;BME280;3957;48.61947800;9.05303100;2024-02-15T04:28:23;96483.78;;;6.35;100.00
7824;BME280;3957;48.61947800;9.05303100;2024-02-15T04:29:24;96484.97;;;6.33;100.00
7824;BME280;3957;48.61947800;9.05303100;2024-02-15T04:30:26;96484.47;;;6.29;100.00
7824;BME280;3957;48.61947800;9.05303100;2024-02-15T04:31:27;96481.47;;;6.24;100.00
7824;BME280;3957;48.61947800;9.05303100;2024-02-15T04:32:29;96483.78;;;6.27;100.00
7824;BME280;3957;48.61947800;9.05303100;2024-02-15T04:33:35;96485.78;;;6.25;100.00
7824;BME280;3957;48.61947800;9.05303100;2024-02-15T04:34:37;96491.44;;;6.38;100.00
7824;BME280;3957;48.61947800;9.05303100;2024-02-15T04:35:39;96484.28;;;6.39;100.00
7824;BME280;3957;48.61947800;9.05303100;2024-02-15T04:36:40;96490.09;;;6.42;100.00
7824;BME280;3957;48.61947800;9.05303100;2024-02-15T04:37:42;96482.13;;;6.42;100.00
7824;BME280;3957;48.61947800;9.05303100;2024-02-15T04:38:43;96488.94;;;6.45;100.00
7824;BME280;3957;48.61947800;9.05303100;2024-02-15T04:39:46;96480.97;;;6.45;100.00
7824;BME280;3957;48.61947800;9.05303100;2024-02-15T04:40:48;96485.78;;;6.41;100.00
7824;BME280;3957;48.61947800;9.05303100;2024-02-15T04:41:51;96483.13;;;6.41;100.00
7824;BME280;3957;48.61947800;9.05303100;2024-02-15T04:42:52;96483.63;;;6.37;100.00
7824;BME280;3957;48.61947800;9.05303100;2024-02-15T04:43:54;96490.28;;;6.33;100.00
7824;BME280;3957;48.61947800;9.05303100;2024-02-15T04:44:56;96480.31;;;6.26;100.00
7824;BME280;3957;48.61947800;9.05303100;2024-02-15T04:45:57;96482.97;;;6.26;100.00
7824;BME280;3957;48.61947800;9.05303100;2024-02-15T04:46:59;96467.34;;;6.23;100.00
7824;BME280;3957;48.61947800;9.05303100;2024-02-15T04:48:01;96476.50;;;6.21;100.00
7824;BME280;3957;48.61947800;9.05303100;2024-02-15T04:49:03;96469.03;;;6.16;100.00
7824;BME280;3957;48.61947800;9.05303100;2024-02-15T04:50:08;96467.69;;;6.12;100.00
7824;BME280;3957;48.61947800;9.05303100;2024-02-15T04:51:10;96478.81;;;6.07;100.00
7824;BME280;3957;48.61947800;9.05303100;2024-02-15T04:52:12;96471.84;;;6.06;100.00
7824;BME280;3957;48.61947800;9.05303100;2024-02-15T04:53:14;96472.34;;;6.02;100.00
7824;BME280;3957;48.61947800;9.05303100;2024-02-15T04:54:15;96472.13;;;5.95;100.00
7824;BME280;3957;48.61947800;9.05303100;2024-02-15T04:55:17;96469.50;;;6.03;100.00
7824;BME280;3957;48.61947800;9.05303100;2024-02-15T04:56:19;96471.69;;;6.00;100.00
7824;BME280;3957;48.61947800;9.05303100;2024-02-15T04:57:22;96469.00;;;5.91;100.00
7824;BME280;3957;48.61947800;9.05303100;2024-02-15T04:58:23;96462.84;;;5.91;100.00